Time;durP1;ratioP1;P1;durP2;ratioP2;P2;SDS_P1;SDS_P2;PMS_P1;PMS_P2;Temp;Humidity;BMP_temperature;BMP_pressure;BME280_temperature;BME280_humidity;BME280_pressure;Samples;Min_cycle;Max_cycle;Signal;HPM_P1;HPM_P2
2021/07/26 00:00:49;;;;;;;10.33;4.93;;;;;;;;;;4974011;28;20216;-81
2021/07/26 00:03:16;;;;;;;8.23;4.50;;;;;;;;;;4987555;28;20733;-81
2021/07/26 00:05:44;;;;;;;8.53;4.50;;;;;;;;;;4976405;28;20316;-81
2021/07/26 00:08:12;;;;;;;9.43;4.90;;;;;;;;;;4980678;28;20317;-81
2021/07/26 00:10:39;;;;;;;8.97;4.70;;;;;;;;;;4980499;28;20201;-81
2021/07/26 00:13:06;;;;;;;6.27;4.50;;;;;;;;;;4979323;28;20215;-81
2021/07/26 00:15:33;;;;;;;9.53;5.03;;;;;;;;;;4976901;28;20197;-81
2021/07/26 00:18:01;;;;;;;13.10;5.13;;;;;;;;;;4983402;28;20228;-81
2021/07/26 00:20:28;;;;;;;8.37;4.80;;;;;;;;;;4978646;28;20251;-81
2021/07/26 00:22:55;;;;;;;16.30;6.60;;;;;;;;;;4985356;28;20238;-81
2021/07/26 00:25:23;;;;;;;12.83;6.47;;;;;;;;;;4983115;28;20216;-82
2021/07/26 00:27:51;;;;;;;16.67;5.17;;;;;;;;;;4978314;28;20226;-82
2021/07/26 00:30:19;;;;;;;12.23;5.70;;;;;;;;;;4983922;28;20640;-82
2021/07/26 00:32:46;;;;;;;12.47;5.63;;;;;;;;;;4975462;28;20210;-82
2021/07/26 00:35:13;;;;;;;13.30;5.63;;;;;;;;;;4977707;28;20232;-83
2021/07/26 00:37:40;;;;;;;14.60;6.37;;;;;;;;;;4987824;28;20229;-81
2021/07/26 00:40:09;;;;;;;17.00;6.47;;;;;;;;;;4996817;28;20276;-82
2021/07/26 00:42:38;;;;;;;15.27;7.00;;;;;;;;;;4996392;28;20221;-82
2021/07/26 00:45:06;;;;;;;18.67;7.13;;;;;;;;;;4979862;28;20202;-82
2021/07/26 00:47:33;;;;;;;21.83;7.53;;;;;;;;;;4977212;28;20308;-83
2021/07/26 00:50:01;;;;;;;20.50;8.13;;;;;;;;;;4979200;28;20240;-82
2021/07/26 00:52:28;;;;;;;20.53;8.13;;;;;;;;;;4985455;28;20267;-82
2021/07/26 00:54:56;;;;;;;21.93;7.97;;;;;;;;;;4979151;28;20214;-83
2021/07/26 00:57:23;;;;;;;25.33;8.57;;;;;;;;;;4979564;28;20247;-82
2021/07/26 00:59:52;;;;;;;27.90;8.53;;;;;;;;;;4981967;28;20275;-82
2021/07/26 01:02:19;;;;;;;24.13;8.90;;;;;;;;;;4975168;28;20208;-83
2021/07/26 01:04:46;;;;;;;19.80;8.27;;;;;;;;;;4972232;28;20265;-83
2021/07/26 01:07:14;;;;;;;22.73;7.83;;;;;;;;;;4976745;28;20226;-82
2021/07/26 01:09:41;;;;;;;26.30;9.30;;;;;;;;;;4972594;28;20212;-83
2021/07/26 01:12:08;;;;;;;26.30;9.10;;;;;;;;;;4975117;28;20337;-83
2021/07/26 01:14:36;;;;;;;26.70;9.23;;;;;;;;;;4984593;28;20320;-82
2021/07/26 01:17:08;;;;;;;25.87;8.90;;;;;;;;;;4985648;28;20329;-82
2021/07/26 01:19:35;;;;;;;21.17;8.57;;;;;;;;;;4971372;28;20691;-83
2021/07/26 01:22:04;;;;;;;26.70;9.53;;;;;;;;;;4973404;28;20229;-83
2021/07/26 01:24:32;;;;;;;23.37;9.17;;;;;;;;;;4978103;28;20283;-82
2021/07/26 01:26:59;;;;;;;20.07;7.90;;;;;;;;;;4976260;28;20217;-83
2021/07/26 01:29:26;;;;;;;19.07;8.87;;;;;;;;;;4975210;28;20300;-82
2021/07/26 01:31:53;;;;;;;26.80;9.17;;;;;;;;;;4972634;28;20197;-82
2021/07/26 01:34:20;;;;;;;20.23;8.90;;;;;;;;;;4973553;28;20209;-82
2021/07/26 01:36:47;;;;;;;23.90;8.87;;;;;;;;;;4983086;28;20233;-83
2021/07/26 01:39:16;;;;;;;25.30;9.63;;;;;;;;;;4976151;28;20703;-83
2021/07/26 01:41:43;;;;;;;20.17;8.40;;;;;;;;;;4982342;28;20637;-83
2021/07/26 01:44:15;;;;;;;21.03;9.37;;;;;;;;;;4980057;28;20231;-81
2021/07/26 01:47:01;;;;;;;17.23;8.90;;;;;;;;;;4974591;28;20257;-82
2021/07/26 01:49:52;;;;;;;24.80;8.77;;;;;;;;;;4988632;28;20209;-82
2021/07/26 01:52:20;;;;;;;23.03;8.63;;;;;;;;;;4965202;28;20216;-82
2021/07/26 01:54:48;;;;;;;21.33;8.73;;;;;;;;;;4979654;28;20289;-82
2021/07/26 01:57:16;;;;;;;19.67;8.10;;;;;;;;;;4984225;28;20247;-82
2021/07/26 01:59:43;;;;;;;25.93;8.83;;;;;;;;;;4973119;28;20389;-82
2021/07/26 02:02:10;;;;;;;21.53;8.70;;;;;;;;;;4967860;28;20209;-83
2021/07/26 02:04:37;;;;;;;18.60;8.33;;;;;;;;;;4978708;28;20225;-83
2021/07/26 02:07:06;;;;;;;15.30;7.87;;;;;;;;;;4977968;28;20610;-83
2021/07/26 02:09:35;;;;;;;21.53;8.03;;;;;;;;;;4976135;28;20212;-82
2021/07/26 02:12:05;;;;;;;15.37;7.33;;;;;;;;;;4974812;28;20233;-82
2021/07/26 02:14:32;;;;;;;21.20;8.57;;;;;;;;;;4983883;28;20265;-82
2021/07/26 02:16:59;;;;;;;17.00;8.03;;;;;;;;;;4974928;28;20823;-82
2021/07/26 02:19:26;;;;;;;21.80;9.17;;;;;;;;;;4979883;28;20225;-82
2021/07/26 02:21:53;;;;;;;20.23;8.87;;;;;;;;;;4987429;28;20206;-82
2021/07/26 02:24:21;;;;;;;21.27;8.43;;;;;;;;;;4989068;28;20221;-83
2021/07/26 02:26:48;;;;;;;23.90;8.67;;;;;;;;;;4974916;28;20241;-82
2021/07/26 02:29:16;;;;;;;16.20;7.10;;;;;;;;;;4981602;28;20324;-82
2021/07/26 02:31:44;;;;;;;20.17;8.07;;;;;;;;;;4975343;28;20292;-82
2021/07/26 02:34:12;;;;;;;19.60;7.63;;;;;;;;;;4971800;28;20273;-82
2021/07/26 02:36:39;;;;;;;16.47;7.57;;;;;;;;;;4969116;28;20304;-82
2021/07/26 02:39:06;;;;;;;18.57;8.23;;;;;;;;;;4972324;28;20594;-82
2021/07/26 02:41:33;;;;;;;16.10;7.60;;;;;;;;;;4969666;28;20220;-82
2021/07/26 02:44:01;;;;;;;20.97;7.53;;;;;;;;;;4975906;28;20309;-82
2021/07/26 02:46:29;;;;;;;14.77;6.93;;;;;;;;;;4974596;28;20292;-83
2021/07/26 02:48:56;;;;;;;16.23;6.97;;;;;;;;;;4968624;28;20293;-83
2021/07/26 02:51:23;;;;;;;27.90;6.80;;;;;;;;;;4971798;28;20237;-82
2021/07/26 02:53:51;;;;;;;18.07;7.83;;;;;;;;;;4973160;28;20218;-82
2021/07/26 02:56:18;;;;;;;20.20;8.30;;;;;;;;;;4980797;28;20693;-82
2021/07/26 02:58:45;;;;;;;20.73;7.80;;;;;;;;;;4973304;28;20320;-83
2021/07/26 03:01:13;;;;;;;16.60;8.00;;;;;;;;;;4972917;28;20292;-82
2021/07/26 03:03:42;;;;;;;19.47;7.13;;;;;;;;;;4978037;28;20315;-82
2021/07/26 03:06:14;;;;;;;21.37;6.80;;;;;;;;;;4983780;28;20616;-82
2021/07/26 03:08:41;;;;;;;19.83;6.90;;;;;;;;;;4971437;28;20221;-82
2021/07/26 03:11:10;;;;;;;27.63;7.47;;;;;;;;;;4969922;28;20213;-82
2021/07/26 03:13:38;;;;;;;19.77;7.00;;;;;;;;;;4991197;28;20220;-82
2021/07/26 03:16:06;;;;;;;20.93;7.67;;;;;;;;;;4979069;28;20681;-83
2021/07/26 03:18:33;;;;;;;26.37;7.70;;;;;;;;;;4971418;28;20238;-83
2021/07/26 03:21:02;;;;;;;15.20;7.27;;;;;;;;;;4974964;28;20218;-83
2021/07/26 03:23:29;;;;;;;19.80;8.03;;;;;;;;;;4974771;28;20306;-82
2021/07/26 03:25:56;;;;;;;21.73;8.23;;;;;;;;;;4978600;28;20206;-82
2021/07/26 03:28:24;;;;;;;23.43;8.87;;;;;;;;;;4977119;28;20308;-82
2021/07/26 03:30:51;;;;;;;31.93;7.57;;;;;;;;;;4974200;28;20252;-82
2021/07/26 03:33:18;;;;;;;19.13;7.23;;;;;;;;;;4967914;28;20241;-82
2021/07/26 03:35:45;;;;;;;30.87;7.33;;;;;;;;;;4973517;28;20241;-82
2021/07/26 03:38:14;;;;;;;17.67;8.17;;;;;;;;;;4974662;28;20263;-83
2021/07/26 03:40:41;;;;;;;21.43;7.93;;;;;;;;;;4973448;28;20257;-83
2021/07/26 03:43:08;;;;;;;13.57;7.30;;;;;;;;;;4975850;28;20271;-82
2021/07/26 03:45:35;;;;;;;14.27;7.63;;;;;;;;;;4978782;28;20757;-82
2021/07/26 03:48:03;;;;;;;19.70;7.47;;;;;;;;;;4981787;28;20225;-83
2021/07/26 03:50:30;;;;;;;17.30;7.67;;;;;;;;;;4979614;28;20647;-83
2021/07/26 03:52:58;;;;;;;16.73;7.20;;;;;;;;;;4983332;28;20244;-82
2021/07/26 03:55:27;;;;;;;18.10;7.67;;;;;;;;;;4978974;28;20718;-83
2021/07/26 03:57:55;;;;;;;15.57;8.40;;;;;;;;;;4975954;28;20297;-83
2021/07/26 04:00:23;;;;;;;14.50;7.90;;;;;;;;;;4982127;28;20270;-81
2021/07/26 04:02:53;;;;;;;17.53;7.70;;;;;;;;;;4990147;28;20202;-81
2021/07/26 04:05:25;;;;;;;14.87;7.90;;;;;;;;;;4995715;28;20236;-82
2021/07/26 04:07:53;;;;;;;14.37;7.17;;;;;;;;;;4975609;28;20225;-82
2021/07/26 04:10:20;;;;;;;15.63;7.50;;;;;;;;;;4975524;28;20292;-83
2021/07/26 04:12:51;;;;;;;14.80;8.23;;;;;;;;;;4978282;28;20264;-83
2021/07/26 04:15:18;;;;;;;16.57;8.30;;;;;;;;;;4982721;28;20654;-82
2021/07/26 04:17:45;;;;;;;23.23;8.40;;;;;;;;;;4975945;28;20671;-83
2021/07/26 04:20:13;;;;;;;15.20;7.47;;;;;;;;;;4973181;28;20240;-84
2021/07/26 04:22:40;;;;;;;11.77;6.47;;;;;;;;;;4987490;28;20209;-83
2021/07/26 04:25:08;;;;;;;16.57;7.40;;;;;;;;;;4981607;28;20326;-83
2021/07/26 04:27:36;;;;;;;11.63;6.87;;;;;;;;;;4977979;28;20317;-83
2021/07/26 04:30:06;;;;;;;12.17;6.20;;;;;;;;;;4974375;28;20221;-82
2021/07/26 04:32:41;;;;;;;11.77;6.53;;;;;;;;;;4976541;28;20289;-83
2021/07/26 04:35:09;;;;;;;17.83;6.60;;;;;;;;;;4987792;28;20290;-83
2021/07/26 04:37:36;;;;;;;12.17;6.73;;;;;;;;;;4987674;28;20320;-82
2021/07/26 04:40:04;;;;;;;13.80;6.67;;;;;;;;;;4980723;28;20292;-83
2021/07/26 04:42:31;;;;;;;16.63;7.03;;;;;;;;;;4968261;28;20209;-82
2021/07/26 04:44:58;;;;;;;12.37;6.70;;;;;;;;;;4972821;28;20226;-84
2021/07/26 04:47:26;;;;;;;17.53;6.53;;;;;;;;;;4973392;28;20237;-83
2021/07/26 04:49:54;;;;;;;26.13;7.73;;;;;;;;;;4987174;28;20255;-82
2021/07/26 04:52:21;;;;;;;14.60;7.07;;;;;;;;;;4979987;28;20244;-82
2021/07/26 04:54:48;;;;;;;15.50;7.40;;;;;;;;;;4984226;28;20308;-82
2021/07/26 04:57:15;;;;;;;12.50;6.67;;;;;;;;;;4968623;28;20249;-82
2021/07/26 04:59:42;;;;;;;11.30;6.57;;;;;;;;;;4964899;28;20292;-82
2021/07/26 05:02:09;;;;;;;20.17;6.40;;;;;;;;;;4974503;28;20248;-82
2021/07/26 05:04:38;;;;;;;16.53;6.17;;;;;;;;;;4975441;28;20320;-82
2021/07/26 05:07:05;;;;;;;10.50;5.33;;;;;;;;;;4980745;28;20553;-83
2021/07/26 05:09:37;;;;;;;9.97;5.83;;;;;;;;;;4975833;28;20213;-83
2021/07/26 05:12:05;;;;;;;9.63;5.90;;;;;;;;;;4975626;28;20198;-83
2021/07/26 05:14:32;;;;;;;10.03;6.20;;;;;;;;;;4991718;28;20594;-82
2021/07/26 05:17:08;;;;;;;9.73;5.80;;;;;;;;;;4982197;28;20233;-84
2021/07/26 05:19:36;;;;;;;13.27;6.50;;;;;;;;;;4970814;28;20201;-83
2021/07/26 05:22:04;;;;;;;9.60;5.50;;;;;;;;;;4986059;28;20267;-84
2021/07/26 05:24:32;;;;;;;9.73;5.87;;;;;;;;;;4977121;28;20225;-84
2021/07/26 05:26:59;;;;;;;8.73;5.90;;;;;;;;;;4971812;28;20790;-84
2021/07/26 05:29:27;;;;;;;9.80;6.13;;;;;;;;;;4973918;28;20213;-84
2021/07/26 05:31:54;;;;;;;12.23;5.90;;;;;;;;;;4977564;28;20202;-84
2021/07/26 05:37:06;;;;;;;9.87;5.33;;;;;;;;;;4975617;28;20697;-83
2021/07/26 05:39:34;;;;;;;18.20;5.73;;;;;;;;;;4977369;28;20261;-84
2021/07/26 05:42:01;;;;;;;8.43;5.50;;;;;;;;;;4974098;28;20245;-83
2021/07/26 05:44:29;;;;;;;15.87;6.30;;;;;;;;;;4985557;28;20245;-83
2021/07/26 05:46:56;;;;;;;14.23;5.67;;;;;;;;;;4991489;28;20257;-83
2021/07/26 05:49:23;;;;;;;8.00;5.53;;;;;;;;;;4992003;28;20210;-82
2021/07/26 05:51:51;;;;;;;10.13;5.70;;;;;;;;;;4983800;28;20209;-83
2021/07/26 05:54:20;;;;;;;9.67;5.63;;;;;;;;;;4977986;28;20220;-83
2021/07/26 05:56:49;;;;;;;10.33;5.20;;;;;;;;;;4971234;28;20930;-83
2021/07/26 05:59:17;;;;;;;10.73;5.90;;;;;;;;;;4970041;28;20220;-84
2021/07/26 06:01:50;;;;;;;6.87;4.50;;;;;;;;;;4976914;28;20232;-83
2021/07/26 06:04:18;;;;;;;6.43;4.43;;;;;;;;;;4977712;28;20229;-84
2021/07/26 06:06:46;;;;;;;8.63;4.93;;;;;;;;;;4979094;28;20674;-82
2021/07/26 06:09:13;;;;;;;7.70;4.93;;;;;;;;;;4969189;28;20205;-84
2021/07/26 06:11:42;;;;;;;9.60;4.80;;;;;;;;;;4974536;28;20221;-84
2021/07/26 06:14:10;;;;;;;8.33;5.23;;;;;;;;;;4975815;28;20641;-84
2021/07/26 06:16:41;;;;;;;8.30;5.53;;;;;;;;;;4979254;28;20209;-83
2021/07/26 06:19:10;;;;;;;9.57;5.63;;;;;;;;;;4976422;28;20201;-84
2021/07/26 06:21:40;;;;;;;10.87;5.90;;;;;;;;;;4976877;28;20209;-84
2021/07/26 06:24:08;;;;;;;9.57;5.30;;;;;;;;;;4981033;28;20205;-84
2021/07/26 06:26:35;;;;;;;11.60;6.90;;;;;;;;;;4975565;28;20313;-84
2021/07/26 06:29:04;;;;;;;12.23;6.30;;;;;;;;;;4973482;28;20275;-83
2021/07/26 06:31:32;;;;;;;12.20;6.43;;;;;;;;;;4978289;28;20237;-84
2021/07/26 06:33:59;;;;;;;13.53;7.13;;;;;;;;;;4975337;28;20213;-83
2021/07/26 06:36:26;;;;;;;10.73;6.67;;;;;;;;;;4974195;28;20220;-84
2021/07/26 06:38:54;;;;;;;10.67;6.13;;;;;;;;;;4975306;28;20316;-85
2021/07/26 06:41:21;;;;;;;14.00;7.57;;;;;;;;;;4973441;28;20221;-84
2021/07/26 06:43:48;;;;;;;10.83;6.43;;;;;;;;;;4972945;28;20216;-85
2021/07/26 06:46:17;;;;;;;14.13;7.37;;;;;;;;;;4984441;28;20296;-85
2021/07/26 06:48:44;;;;;;;14.63;7.50;;;;;;;;;;4981844;28;20332;-85
2021/07/26 06:51:11;;;;;;;11.17;6.80;;;;;;;;;;4985877;28;20244;-85
2021/07/26 06:53:38;;;;;;;12.20;7.47;;;;;;;;;;4981747;28;20300;-85
2021/07/26 06:56:06;;;;;;;13.23;7.27;;;;;;;;;;4975670;28;20217;-82
2021/07/26 06:58:33;;;;;;;15.27;7.53;;;;;;;;;;4974404;28;20229;-84
2021/07/26 07:01:03;;;;;;;12.97;7.70;;;;;;;;;;4978044;28;20253;-85
2021/07/26 07:03:32;;;;;;;11.73;6.80;;;;;;;;;;4977083;28;20213;-85
2021/07/26 07:06:03;;;;;;;9.97;6.27;;;;;;;;;;4981630;28;20275;-84
2021/07/26 07:08:30;;;;;;;12.20;6.60;;;;;;;;;;4981826;28;20276;-84
2021/07/26 07:11:06;;;;;;;10.20;6.43;;;;;;;;;;4985645;28;20209;-84
2021/07/26 07:13:34;;;;;;;10.47;5.40;;;;;;;;;;4982589;28;20241;-84
2021/07/26 07:16:01;;;;;;;11.73;6.57;;;;;;;;;;4988268;28;20277;-85
2021/07/26 07:18:29;;;;;;;13.50;6.43;;;;;;;;;;4981886;28;20706;-84
2021/07/26 07:20:57;;;;;;;9.97;6.63;;;;;;;;;;4987576;28;20292;-84
2021/07/26 07:23:24;;;;;;;10.30;6.10;;;;;;;;;;4981149;28;20641;-84
2021/07/26 07:25:51;;;;;;;10.47;6.27;;;;;;;;;;4979378;28;20226;-84
2021/07/26 07:28:19;;;;;;;11.73;6.23;;;;;;;;;;4985012;28;20232;-84
2021/07/26 07:30:46;;;;;;;9.53;5.93;;;;;;;;;;4980610;28;20720;-84
2021/07/26 07:33:13;;;;;;;9.23;6.50;;;;;;;;;;4987338;28;20210;-85
2021/07/26 07:35:40;;;;;;;9.43;5.53;;;;;;;;;;4990297;28;20208;-84
2021/07/26 07:38:09;;;;;;;12.93;6.00;;;;;;;;;;4983191;28;20234;-85
2021/07/26 07:40:38;;;;;;;11.53;5.63;;;;;;;;;;4987626;28;20286;-85
2021/07/26 07:43:05;;;;;;;9.30;4.73;;;;;;;;;;4976260;28;20293;-86
2021/07/26 07:45:33;;;;;;;9.50;4.60;;;;;;;;;;4981036;28;20268;-84
2021/07/26 07:48:01;;;;;;;6.87;4.17;;;;;;;;;;4976324;28;20240;-83
2021/07/26 07:50:28;;;;;;;11.10;4.30;;;;;;;;;;4977799;28;20293;-83
2021/07/26 07:52:56;;;;;;;6.38;3.90;;;;;;;;;;4984930;28;20209;-82
2021/07/26 07:55:24;;;;;;;4.80;3.33;;;;;;;;;;4978947;28;20205;-83
2021/07/26 07:57:52;;;;;;;5.95;3.45;;;;;;;;;;4980771;28;20332;-83
2021/07/26 08:00:21;;;;;;;4.38;3.05;;;;;;;;;;4978716;28;20289;-82
2021/07/26 08:02:48;;;;;;;5.97;3.08;;;;;;;;;;4974668;28;20309;-82
2021/07/26 08:05:16;;;;;;;4.90;2.70;;;;;;;;;;4973552;28;20759;-81
2021/07/26 08:07:44;;;;;;;4.55;2.90;;;;;;;;;;4983934;28;20232;-81
2021/07/26 08:10:11;;;;;;;4.50;2.60;;;;;;;;;;4973189;28;20305;-82
2021/07/26 08:12:40;;;;;;;5.22;2.65;;;;;;;;;;4977876;28;20255;-82
2021/07/26 08:15:08;;;;;;;4.35;2.50;;;;;;;;;;4974647;28;20292;-81
2021/07/26 08:17:35;;;;;;;4.03;2.25;;;;;;;;;;4972789;28;20226;-83
2021/07/26 08:20:04;;;;;;;5.25;2.72;;;;;;;;;;4975389;28;20209;-81
2021/07/26 08:22:32;;;;;;;3.38;2.13;;;;;;;;;;4971576;28;20221;-82
2021/07/26 08:24:59;;;;;;;5.03;2.20;;;;;;;;;;4981162;28;20581;-81
2021/07/26 08:27:26;;;;;;;6.45;2.20;;;;;;;;;;4974168;28;20649;-82
2021/07/26 08:29:54;;;;;;;5.72;2.28;;;;;;;;;;4981871;28;20217;-82
2021/07/26 08:32:21;;;;;;;2.45;1.92;;;;;;;;;;4977610;28;20305;-82
2021/07/26 08:34:49;;;;;;;5.18;2.15;;;;;;;;;;4982322;28;20289;-82
2021/07/26 08:37:16;;;;;;;5.25;2.30;;;;;;;;;;4983409;28;20310;-82
2021/07/26 08:39:43;;;;;;;2.85;1.80;;;;;;;;;;4974254;28;20204;-82
2021/07/26 08:42:10;;;;;;;3.38;2.28;;;;;;;;;;4978017;28;20236;-80
2021/07/26 08:44:38;;;;;;;5.18;2.00;;;;;;;;;;4983606;28;20263;-81
2021/07/26 08:47:07;;;;;;;5.13;2.15;;;;;;;;;;4977832;28;20600;-82
2021/07/26 08:49:35;;;;;;;9.15;2.40;;;;;;;;;;4979947;28;20238;-83
2021/07/26 08:52:02;;;;;;;5.70;2.30;;;;;;;;;;4976828;28;20202;-84
2021/07/26 08:54:30;;;;;;;6.23;2.20;;;;;;;;;;4978638;28;20293;-83
2021/07/26 08:56:58;;;;;;;3.57;2.20;;;;;;;;;;4986536;28;20245;-83
2021/07/26 08:59:25;;;;;;;3.40;2.37;;;;;;;;;;4985369;28;20590;-83
2021/07/26 09:01:54;;;;;;;3.17;1.90;;;;;;;;;;4981610;28;20670;-83
2021/07/26 09:04:23;;;;;;;4.50;2.37;;;;;;;;;;4982669;28;20220;-83
2021/07/26 09:06:52;;;;;;;4.72;1.80;;;;;;;;;;4982651;28;20305;-83
2021/07/26 09:09:19;;;;;;;4.20;1.60;;;;;;;;;;4979444;28;20208;-83
2021/07/26 09:11:47;;;;;;;2.45;1.63;;;;;;;;;;4984902;28;20282;-85
2021/07/26 09:14:35;;;;;;;3.63;1.48;;;;;;;;;;4986307;28;20232;-82
2021/07/26 09:17:03;;;;;;;3.65;1.63;;;;;;;;;;4984506;28;20242;-82
2021/07/26 09:19:51;;;;;;;4.97;2.08;;;;;;;;;;4983267;28;20284;-82
2021/07/26 09:22:27;;;;;;;3.13;1.57;;;;;;;;;;4974582;28;20217;-84
2021/07/26 09:25:11;;;;;;;3.33;1.60;;;;;;;;;;4978960;28;20285;-82
2021/07/26 09:27:38;;;;;;;3.67;1.70;;;;;;;;;;4982797;28;21179;-82
2021/07/26 09:30:14;;;;;;;4.37;1.50;;;;;;;;;;4984933;28;20273;-83
2021/07/26 09:32:42;;;;;;;4.20;1.80;;;;;;;;;;4978138;28;20226;-82
2021/07/26 09:35:11;;;;;;;2.80;1.40;;;;;;;;;;4969855;28;20210;-83
2021/07/26 09:37:38;;;;;;;2.80;1.70;;;;;;;;;;4978775;28;20226;-81
2021/07/26 09:40:21;;;;;;;2.77;1.50;;;;;;;;;;4973796;28;20230;-82
2021/07/26 09:42:48;;;;;;;4.53;1.97;;;;;;;;;;4982155;28;20218;-82
2021/07/26 09:45:19;;;;;;;3.97;1.60;;;;;;;;;;4977232;28;20218;-82
2021/07/26 09:47:48;;;;;;;2.13;1.43;;;;;;;;;;4986694;28;20742;-81
2021/07/26 09:50:33;;;;;;;5.37;1.90;;;;;;;;;;4978646;28;20233;-82
2021/07/26 09:53:07;;;;;;;3.70;1.70;;;;;;;;;;4970729;28;20544;-82
2021/07/26 09:55:34;;;;;;;2.90;1.70;;;;;;;;;;4978567;28;20197;-82
2021/07/26 09:58:02;;;;;;;3.30;1.60;;;;;;;;;;4975846;28;20687;-81
2021/07/26 10:00:30;;;;;;;3.00;1.70;;;;;;;;;;4977080;28;20245;-82
2021/07/26 10:02:57;;;;;;;3.03;1.50;;;;;;;;;;4981258;28;20217;-82
2021/07/26 10:05:28;;;;;;;4.40;1.90;;;;;;;;;;4980436;28;20210;-82
2021/07/26 10:07:55;;;;;;;3.33;1.63;;;;;;;;;;4983177;28;20222;-82
2021/07/26 10:10:23;;;;;;;3.37;1.80;;;;;;;;;;4987856;28;20255;-81
2021/07/26 10:12:51;;;;;;;3.20;1.60;;;;;;;;;;4980457;28;20622;-82
2021/07/26 10:15:19;;;;;;;2.90;1.70;;;;;;;;;;4982806;28;20217;-82
2021/07/26 10:17:47;;;;;;;2.97;1.80;;;;;;;;;;4982671;28;20245;-83
2021/07/26 10:20:15;;;;;;;2.53;1.63;;;;;;;;;;4982730;28;20212;-82
2021/07/26 10:22:44;;;;;;;2.60;1.60;;;;;;;;;;4982405;28;20678;-82
2021/07/26 10:25:15;;;;;;;2.80;1.50;;;;;;;;;;4975586;28;20968;-82
2021/07/26 10:27:43;;;;;;;2.80;1.73;;;;;;;;;;4980925;28;20288;-82
2021/07/26 10:30:10;;;;;;;2.30;1.53;;;;;;;;;;4980346;28;20269;-82
2021/07/26 10:32:39;;;;;;;2.47;1.43;;;;;;;;;;4979812;28;20210;-82
2021/07/26 10:35:26;;;;;;;2.47;1.60;;;;;;;;;;4978942;28;20214;-82
2021/07/26 10:37:55;;;;;;;3.83;1.60;;;;;;;;;;4985575;28;20228;-82
2021/07/26 10:40:23;;;;;;;3.27;1.80;;;;;;;;;;4978022;28;20218;-81
2021/07/26 10:42:51;;;;;;;4.83;1.93;;;;;;;;;;4981228;28;20217;-81
2021/07/26 10:45:36;;;;;;;3.37;1.97;;;;;;;;;;4979644;28;20225;-82
2021/07/26 10:48:22;;;;;;;3.43;1.70;;;;;;;;;;4989129;28;20355;-81
2021/07/26 10:50:50;;;;;;;6.57;1.90;;;;;;;;;;4984719;28;20211;-82
2021/07/26 10:53:32;;;;;;;13.40;2.13;;;;;;;;;;4987990;28;20276;-81
2021/07/26 10:56:04;;;;;;;6.37;2.03;;;;;;;;;;4985471;28;20232;-82
2021/07/26 10:59:04;;;;;;;7.57;2.10;;;;;;;;;;4976715;28;20322;-81
2021/07/26 11:01:37;;;;;;;5.73;2.40;;;;;;;;;;4987792;28;20208;-81
2021/07/26 11:04:04;;;;;;;7.53;2.17;;;;;;;;;;4986452;28;20206;-81
2021/07/26 11:06:50;;;;;;;2.90;1.83;;;;;;;;;;4982530;28;20201;-82
2021/07/26 11:09:36;;;;;;;5.20;2.40;;;;;;;;;;4985790;28;20292;-82
2021/07/26 11:12:05;;;;;;;5.03;2.03;;;;;;;;;;4988356;28;20243;-83
2021/07/26 11:14:32;;;;;;;4.10;1.80;;;;;;;;;;4987006;28;20220;-83
2021/07/26 11:17:03;;;;;;;4.07;2.20;;;;;;;;;;4991420;28;20543;-82
2021/07/26 11:19:31;;;;;;;3.27;1.80;;;;;;;;;;4986034;28;20597;-81
2021/07/26 11:21:58;;;;;;;4.37;1.93;;;;;;;;;;4979926;28;20241;-82
2021/07/26 11:24:41;;;;;;;2.83;1.90;;;;;;;;;;4986761;28;20300;-82
2021/07/26 11:27:09;;;;;;;3.43;2.10;;;;;;;;;;4991181;28;20230;-82
2021/07/26 11:29:36;;;;;;;4.80;1.73;;;;;;;;;;4986416;28;20214;-81
2021/07/26 11:32:04;;;;;;;5.60;1.70;;;;;;;;;;4979968;28;20227;-83
2021/07/26 11:34:33;;;;;;;5.60;1.57;;;;;;;;;;4980445;28;20251;-83
2021/07/26 11:37:07;;;;;;;7.03;2.23;;;;;;;;;;4978163;28;21054;-81
2021/07/26 11:39:50;;;;;;;3.27;1.87;;;;;;;;;;4976188;28;20244;-82
2021/07/26 11:42:20;;;;;;;7.03;2.50;;;;;;;;;;4975181;28;20229;-83
2021/07/26 11:44:49;;;;;;;4.83;2.20;;;;;;;;;;4979112;28;20203;-82
2021/07/26 11:47:16;;;;;;;4.80;2.20;;;;;;;;;;4978952;28;20228;-84
2021/07/26 11:49:47;;;;;;;3.50;2.30;;;;;;;;;;4973713;28;20591;-83
2021/07/26 11:52:14;;;;;;;12.40;2.37;;;;;;;;;;4978959;28;20249;-82
2021/07/26 11:54:41;;;;;;;4.70;2.27;;;;;;;;;;4982138;28;20297;-84
2021/07/26 11:57:09;;;;;;;4.17;2.50;;;;;;;;;;4979303;28;20272;-82
2021/07/26 11:59:39;;;;;;;4.93;2.40;;;;;;;;;;4986331;28;20239;-82
2021/07/26 12:02:08;;;;;;;4.50;2.47;;;;;;;;;;4984752;28;20215;-83
2021/07/26 12:04:35;;;;;;;4.87;2.60;;;;;;;;;;4990452;28;20279;-82
2021/07/26 12:07:03;;;;;;;5.17;2.33;;;;;;;;;;4982940;28;20235;-83
2021/07/26 12:09:31;;;;;;;6.60;2.63;;;;;;;;;;4982622;28;20221;-82
2021/07/26 12:12:08;;;;;;;7.40;2.77;;;;;;;;;;4978199;28;20209;-82
2021/07/26 12:14:36;;;;;;;4.60;2.23;;;;;;;;;;4979731;28;20203;-82
2021/07/26 12:17:05;;;;;;;6.53;2.40;;;;;;;;;;4982833;28;20245;-81
2021/07/26 12:19:33;;;;;;;6.53;2.60;;;;;;;;;;4992827;28;20295;-82
2021/07/26 12:22:20;;;;;;;3.00;2.20;;;;;;;;;;4987717;28;20214;-84
2021/07/26 12:24:58;;;;;;;3.00;2.03;;;;;;;;;;4985272;28;20211;-82
2021/07/26 12:27:27;;;;;;;4.20;2.20;;;;;;;;;;4987097;28;20222;-83
2021/07/26 12:29:57;;;;;;;4.00;2.03;;;;;;;;;;4981123;28;20675;-83
2021/07/26 12:32:26;;;;;;;2.67;1.87;;;;;;;;;;4994838;28;20229;-83
2021/07/26 12:35:13;;;;;;;7.07;2.17;;;;;;;;;;4985379;28;20209;-83
2021/07/26 12:37:41;;;;;;;4.50;2.03;;;;;;;;;;4987219;28;20253;-82
2021/07/26 12:40:15;;;;;;;3.67;1.93;;;;;;;;;;4984651;28;20270;-83
2021/07/26 12:42:42;;;;;;;4.60;2.30;;;;;;;;;;4984341;28;20256;-82
2021/07/26 12:45:20;;;;;;;4.53;2.30;;;;;;;;;;4983367;28;20217;-82
2021/07/26 12:47:48;;;;;;;5.70;2.13;;;;;;;;;;4985160;28;20663;-82
2021/07/26 12:50:15;;;;;;;4.03;2.20;;;;;;;;;;4981515;28;20241;-83
2021/07/26 12:52:42;;;;;;;3.97;2.00;;;;;;;;;;4982195;28;20649;-81
2021/07/26 12:55:10;;;;;;;2.97;2.07;;;;;;;;;;4986512;28;20274;-83
2021/07/26 12:57:37;;;;;;;3.23;2.00;;;;;;;;;;4987164;28;20293;-81
2021/07/26 13:00:04;;;;;;;3.00;2.00;;;;;;;;;;4993560;28;20220;-82
2021/07/26 13:02:32;;;;;;;3.47;1.90;;;;;;;;;;4981799;28;20229;-82
2021/07/26 13:05:00;;;;;;;4.37;1.80;;;;;;;;;;4986118;28;20210;-82
2021/07/26 13:07:27;;;;;;;2.63;1.93;;;;;;;;;;4984652;28;20294;-83
2021/07/26 13:09:55;;;;;;;4.40;1.90;;;;;;;;;;4982651;28;20245;-83
2021/07/26 13:12:22;;;;;;;3.17;2.00;;;;;;;;;;4992624;28;20304;-82
2021/07/26 13:14:49;;;;;;;4.93;2.00;;;;;;;;;;4988459;28;20237;-82
2021/07/26 13:17:17;;;;;;;3.17;1.80;;;;;;;;;;4981905;28;20248;-83
2021/07/26 13:19:44;;;;;;;2.83;1.90;;;;;;;;;;4991924;28;20264;-83
2021/07/26 13:22:13;;;;;;;2.90;1.90;;;;;;;;;;4991444;28;20229;-82
2021/07/26 13:24:40;;;;;;;3.10;1.90;;;;;;;;;;4985529;28;20261;-82
2021/07/26 13:27:07;;;;;;;3.93;1.77;;;;;;;;;;4991039;28;20253;-83
2021/07/26 13:29:35;;;;;;;3.13;1.77;;;;;;;;;;4987338;28;20202;-83
2021/07/26 13:32:02;;;;;;;2.53;1.70;;;;;;;;;;4986001;28;20233;-84
2021/07/26 13:34:29;;;;;;;5.60;1.87;;;;;;;;;;4987775;28;20209;-82
2021/07/26 13:36:56;;;;;;;4.90;2.10;;;;;;;;;;4988783;28;20221;-82
2021/07/26 13:39:25;;;;;;;4.03;2.00;;;;;;;;;;4984616;28;20241;-82
2021/07/26 13:41:54;;;;;;;9.93;2.20;;;;;;;;;;4986024;28;20213;-83
2021/07/26 13:44:22;;;;;;;2.93;1.93;;;;;;;;;;4982371;28;20222;-82
2021/07/26 13:46:49;;;;;;;6.27;1.97;;;;;;;;;;4987331;28;20220;-83
2021/07/26 13:49:16;;;;;;;5.43;2.20;;;;;;;;;;4982957;28;20205;-83
2021/07/26 13:51:44;;;;;;;4.43;1.97;;;;;;;;;;4987713;28;20213;-83
2021/07/26 13:54:12;;;;;;;3.37;2.20;;;;;;;;;;4985053;28;20269;-83
2021/07/26 13:56:40;;;;;;;2.60;1.83;;;;;;;;;;4981906;28;20425;-83
2021/07/26 13:59:07;;;;;;;4.23;2.00;;;;;;;;;;4984141;28;20238;-82
2021/07/26 14:01:35;;;;;;;3.37;2.10;;;;;;;;;;4989430;28;20205;-82
2021/07/26 14:04:03;;;;;;;2.97;1.97;;;;;;;;;;4991840;28;20205;-83
2021/07/26 14:06:31;;;;;;;4.60;2.27;;;;;;;;;;4986283;28;20206;-83
2021/07/26 14:08:58;;;;;;;3.77;2.27;;;;;;;;;;4983855;28;20213;-84
2021/07/26 14:11:25;;;;;;;3.50;2.30;;;;;;;;;;4990631;28;20229;-82
2021/07/26 14:13:54;;;;;;;6.17;2.20;;;;;;;;;;4988419;28;20940;-83
2021/07/26 14:16:21;;;;;;;5.77;2.20;;;;;;;;;;4982387;28;20209;-83
2021/07/26 14:18:48;;;;;;;3.30;1.90;;;;;;;;;;4983316;28;20319;-83
2021/07/26 14:21:15;;;;;;;3.80;2.03;;;;;;;;;;4986406;28;20242;-83
2021/07/26 14:23:42;;;;;;;3.17;2.43;;;;;;;;;;4982023;28;20273;-83
2021/07/26 14:26:10;;;;;;;2.53;2.00;;;;;;;;;;4982345;28;20268;-82
2021/07/26 14:28:37;;;;;;;3.30;2.10;;;;;;;;;;4979983;28;20294;-82
2021/07/26 14:31:05;;;;;;;2.57;1.90;;;;;;;;;;4986212;28;20213;-82
2021/07/26 14:33:34;;;;;;;3.03;1.90;;;;;;;;;;4982940;28;20277;-82
2021/07/26 14:36:01;;;;;;;2.67;1.83;;;;;;;;;;4982543;28;20205;-84
2021/07/26 14:38:28;;;;;;;3.50;2.23;;;;;;;;;;4980910;28;20241;-82
2021/07/26 14:40:55;;;;;;;4.37;2.23;;;;;;;;;;4979859;28;20289;-83
2021/07/26 14:43:22;;;;;;;3.27;2.30;;;;;;;;;;4984816;28;21085;-82
2021/07/26 14:45:50;;;;;;;4.20;2.20;;;;;;;;;;4988861;28;20241;-83
2021/07/26 14:48:18;;;;;;;4.93;2.10;;;;;;;;;;4984536;28;20228;-83
2021/07/26 14:50:45;;;;;;;3.67;2.50;;;;;;;;;;4984728;28;20209;-83